sensor_id;sensor_type;location;lat;lon;timestamp;P1;durP1;ratioP1;P2;durP2;ratioP2
19929;SDS011;10127;47.780;9.606;2022-12-18T00:01:26;40.30;;;19.00;;
19929;SDS011;10127;47.780;9.606;2022-12-18T00:03:52;44.13;;;21.23;;
19929;SDS011;10127;47.780;9.606;2022-12-18T00:06:19;43.73;;;20.20;;
19929;SDS011;10127;47.780;9.606;2022-12-18T00:08:45;47.10;;;20.07;;
19929;SDS011;10127;47.780;9.606;2022-12-18T00:11:16;50.43;;;21.93;;
19929;SDS011;10127;47.780;9.606;2022-12-18T00:13:43;48.77;;;21.77;;
19929;SDS011;10127;47.780;9.606;2022-12-18T00:16:10;47.20;;;22.20;;
19929;SDS011;10127;47.780;9.606;2022-12-18T00:18:37;50.43;;;22.63;;
19929;SDS011;10127;47.780;9.606;2022-12-18T00:21:04;49.13;;;22.80;;
19929;SDS011;10127;47.780;9.606;2022-12-18T00:23:33;47.83;;;20.23;;
19929;SDS011;10127;47.780;9.606;2022-12-18T00:26:03;52.47;;;22.53;;
19929;SDS011;10127;47.780;9.606;2022-12-18T00:28:31;45.80;;;21.97;;
19929;SDS011;10127;47.780;9.606;2022-12-18T00:31:07;47.70;;;21.67;;
19929;SDS011;10127;47.780;9.606;2022-12-18T00:33:35;51.00;;;23.33;;
19929;SDS011;10127;47.780;9.606;2022-12-18T00:36:05;52.97;;;22.27;;
19929;SDS011;10127;47.780;9.606;2022-12-18T00:38:32;55.30;;;23.13;;
19929;SDS011;10127;47.780;9.606;2022-12-18T00:40:58;49.27;;;21.47;;
19929;SDS011;10127;47.780;9.606;2022-12-18T00:43:24;53.23;;;23.50;;
19929;SDS011;10127;47.780;9.606;2022-12-18T00:45:50;46.57;;;22.27;;
19929;SDS011;10127;47.780;9.606;2022-12-18T00:48:15;52.33;;;22.93;;
19929;SDS011;10127;47.780;9.606;2022-12-18T00:50:41;51.40;;;24.60;;
19929;SDS011;10127;47.780;9.606;2022-12-18T00:53:07;50.10;;;23.23;;
19929;SDS011;10127;47.780;9.606;2022-12-18T00:55:39;51.67;;;22.53;;
19929;SDS011;10127;47.780;9.606;2022-12-18T00:58:05;46.27;;;20.93;;
19929;SDS011;10127;47.780;9.606;2022-12-18T01:00:31;53.80;;;23.17;;
19929;SDS011;10127;47.780;9.606;2022-12-18T01:02:56;50.87;;;21.23;;
19929;SDS011;10127;47.780;9.606;2022-12-18T01:05:22;52.93;;;22.93;;
19929;SDS011;10127;47.780;9.606;2022-12-18T01:07:48;52.00;;;22.63;;
19929;SDS011;10127;47.780;9.606;2022-12-18T01:10:13;50.87;;;23.20;;
19929;SDS011;10127;47.780;9.606;2022-12-18T01:12:39;47.33;;;22.43;;
19929;SDS011;10127;47.780;9.606;2022-12-18T01:15:05;54.13;;;23.20;;
19929;SDS011;10127;47.780;9.606;2022-12-18T01:17:31;50.20;;;22.30;;
19929;SDS011;10127;47.780;9.606;2022-12-18T01:19:58;49.87;;;21.87;;
19929;SDS011;10127;47.780;9.606;2022-12-18T01:22:23;50.27;;;23.40;;
19929;SDS011;10127;47.780;9.606;2022-12-18T01:24:49;52.27;;;23.67;;
19929;SDS011;10127;47.780;9.606;2022-12-18T01:27:15;49.93;;;22.33;;
19929;SDS011;10127;47.780;9.606;2022-12-18T01:29:40;49.03;;;22.63;;
19929;SDS011;10127;47.780;9.606;2022-12-18T01:32:06;51.40;;;22.47;;
19929;SDS011;10127;47.780;9.606;2022-12-18T01:34:32;51.03;;;21.27;;
19929;SDS011;10127;47.780;9.606;2022-12-18T01:36:57;51.90;;;23.00;;
19929;SDS011;10127;47.780;9.606;2022-12-18T01:39:23;47.50;;;22.00;;
19929;SDS011;10127;47.780;9.606;2022-12-18T01:41:49;48.23;;;21.83;;
19929;SDS011;10127;47.780;9.606;2022-12-18T01:47:24;48.37;;;22.20;;
19929;SDS011;10127;47.780;9.606;2022-12-18T01:50:01;49.77;;;22.13;;
19929;SDS011;10127;47.780;9.606;2022-12-18T01:52:33;48.33;;;22.67;;
19929;SDS011;10127;47.780;9.606;2022-12-18T01:54:59;48.67;;;21.70;;
19929;SDS011;10127;47.780;9.606;2022-12-18T01:57:26;53.10;;;22.33;;
19929;SDS011;10127;47.780;9.606;2022-12-18T01:59:54;48.40;;;22.47;;
19929;SDS011;10127;47.780;9.606;2022-12-18T02:02:24;48.27;;;21.47;;
19929;SDS011;10127;47.780;9.606;2022-12-18T02:04:53;55.00;;;24.43;;
19929;SDS011;10127;47.780;9.606;2022-12-18T02:12:56;45.30;;;20.40;;
19929;SDS011;10127;47.780;9.606;2022-12-18T02:18:09;55.60;;;22.87;;
19929;SDS011;10127;47.780;9.606;2022-12-18T02:28:48;53.20;;;22.53;;
19929;SDS011;10127;47.780;9.606;2022-12-18T02:31:30;46.27;;;20.50;;
19929;SDS011;10127;47.780;9.606;2022-12-18T02:34:01;49.47;;;20.93;;
19929;SDS011;10127;47.780;9.606;2022-12-18T02:36:29;50.00;;;22.27;;
19929;SDS011;10127;47.780;9.606;2022-12-18T02:38:57;48.23;;;21.33;;
19929;SDS011;10127;47.780;9.606;2022-12-18T02:41:25;46.70;;;21.07;;
19929;SDS011;10127;47.780;9.606;2022-12-18T02:43:56;45.53;;;21.33;;
19929;SDS011;10127;47.780;9.606;2022-12-18T02:49:08;44.17;;;20.80;;
19929;SDS011;10127;47.780;9.606;2022-12-18T03:12:32;49.60;;;21.10;;
19929;SDS011;10127;47.780;9.606;2022-12-18T03:17:37;46.07;;;21.90;;
19929;SDS011;10127;47.780;9.606;2022-12-18T03:20:08;47.43;;;20.70;;
19929;SDS011;10127;47.780;9.606;2022-12-18T03:22:37;47.13;;;19.83;;
19929;SDS011;10127;47.780;9.606;2022-12-18T03:25:06;51.67;;;21.10;;
19929;SDS011;10127;47.780;9.606;2022-12-18T03:27:35;45.17;;;19.83;;
19929;SDS011;10127;47.780;9.606;2022-12-18T03:30:07;42.27;;;20.13;;
19929;SDS011;10127;47.780;9.606;2022-12-18T03:32:52;41.47;;;19.37;;
19929;SDS011;10127;47.780;9.606;2022-12-18T03:35:25;44.90;;;20.67;;
19929;SDS011;10127;47.780;9.606;2022-12-18T03:37:54;46.57;;;19.60;;
19929;SDS011;10127;47.780;9.606;2022-12-18T03:40:21;44.27;;;19.53;;
19929;SDS011;10127;47.780;9.606;2022-12-18T03:42:56;43.07;;;20.07;;
19929;SDS011;10127;47.780;9.606;2022-12-18T03:45:41;45.20;;;19.73;;
19929;SDS011;10127;47.780;9.606;2022-12-18T03:51:02;46.07;;;20.63;;
19929;SDS011;10127;47.780;9.606;2022-12-18T03:53:35;45.43;;;21.20;;
19929;SDS011;10127;47.780;9.606;2022-12-18T03:56:15;49.03;;;21.33;;
19929;SDS011;10127;47.780;9.606;2022-12-18T03:58:43;49.87;;;20.63;;
19929;SDS011;10127;47.780;9.606;2022-12-18T04:01:10;42.03;;;19.47;;
19929;SDS011;10127;47.780;9.606;2022-12-18T04:03:39;43.83;;;19.73;;
19929;SDS011;10127;47.780;9.606;2022-12-18T04:06:07;51.83;;;21.13;;
19929;SDS011;10127;47.780;9.606;2022-12-18T04:08:34;47.57;;;20.37;;
19929;SDS011;10127;47.780;9.606;2022-12-18T04:11:01;47.67;;;20.20;;
19929;SDS011;10127;47.780;9.606;2022-12-18T04:13:28;42.60;;;20.70;;
19929;SDS011;10127;47.780;9.606;2022-12-18T04:15:56;50.67;;;21.37;;
19929;SDS011;10127;47.780;9.606;2022-12-18T04:18:22;49.73;;;21.57;;
19929;SDS011;10127;47.780;9.606;2022-12-18T04:20:47;44.17;;;20.03;;
19929;SDS011;10127;47.780;9.606;2022-12-18T04:23:13;49.20;;;21.10;;
19929;SDS011;10127;47.780;9.606;2022-12-18T04:25:39;45.77;;;20.07;;
19929;SDS011;10127;47.780;9.606;2022-12-18T04:28:04;46.97;;;20.70;;
19929;SDS011;10127;47.780;9.606;2022-12-18T04:30:30;48.03;;;19.10;;
19929;SDS011;10127;47.780;9.606;2022-12-18T04:32:56;43.03;;;18.97;;
19929;SDS011;10127;47.780;9.606;2022-12-18T04:35:21;46.30;;;19.47;;
19929;SDS011;10127;47.780;9.606;2022-12-18T04:37:47;45.10;;;20.43;;
19929;SDS011;10127;47.780;9.606;2022-12-18T04:40:12;45.10;;;20.20;;
19929;SDS011;10127;47.780;9.606;2022-12-18T04:42:39;46.57;;;20.00;;
19929;SDS011;10127;47.780;9.606;2022-12-18T04:45:05;45.50;;;18.80;;
19929;SDS011;10127;47.780;9.606;2022-12-18T04:47:31;41.97;;;20.00;;
19929;SDS011;10127;47.780;9.606;2022-12-18T04:49:57;41.40;;;18.97;;
19929;SDS011;10127;47.780;9.606;2022-12-18T04:52:23;49.50;;;19.87;;
19929;SDS011;10127;47.780;9.606;2022-12-18T04:54:48;44.70;;;20.30;;
19929;SDS011;10127;47.780;9.606;2022-12-18T04:57:14;48.70;;;20.80;;
19929;SDS011;10127;47.780;9.606;2022-12-18T04:59:40;43.10;;;20.07;;
19929;SDS011;10127;47.780;9.606;2022-12-18T05:02:05;43.93;;;19.60;;
19929;SDS011;10127;47.780;9.606;2022-12-18T05:04:31;41.57;;;18.40;;
19929;SDS011;10127;47.780;9.606;2022-12-18T05:06:56;44.43;;;18.17;;
19929;SDS011;10127;47.780;9.606;2022-12-18T05:09:22;41.37;;;18.30;;
19929;SDS011;10127;47.780;9.606;2022-12-18T05:11:48;41.80;;;18.93;;
19929;SDS011;10127;47.780;9.606;2022-12-18T05:14:13;42.77;;;18.33;;
19929;SDS011;10127;47.780;9.606;2022-12-18T05:16:40;42.30;;;19.07;;
19929;SDS011;10127;47.780;9.606;2022-12-18T05:19:05;39.33;;;17.73;;
19929;SDS011;10127;47.780;9.606;2022-12-18T05:21:31;42.13;;;18.40;;
19929;SDS011;10127;47.780;9.606;2022-12-18T05:23:56;46.57;;;19.10;;
19929;SDS011;10127;47.780;9.606;2022-12-18T05:26:22;47.27;;;20.80;;
19929;SDS011;10127;47.780;9.606;2022-12-18T05:28:48;43.63;;;19.17;;
19929;SDS011;10127;47.780;9.606;2022-12-18T05:31:13;44.10;;;19.27;;
19929;SDS011;10127;47.780;9.606;2022-12-18T05:33:39;47.23;;;20.53;;
19929;SDS011;10127;47.780;9.606;2022-12-18T05:36:06;42.83;;;19.13;;
19929;SDS011;10127;47.780;9.606;2022-12-18T05:38:33;41.80;;;18.83;;
19929;SDS011;10127;47.780;9.606;2022-12-18T05:41:00;41.47;;;18.13;;
19929;SDS011;10127;47.780;9.606;2022-12-18T05:43:26;42.00;;;18.33;;
19929;SDS011;10127;47.780;9.606;2022-12-18T05:45:53;43.90;;;19.50;;
19929;SDS011;10127;47.780;9.606;2022-12-18T05:48:19;40.93;;;17.97;;
19929;SDS011;10127;47.780;9.606;2022-12-18T05:50:46;42.13;;;17.90;;
19929;SDS011;10127;47.780;9.606;2022-12-18T05:53:16;48.37;;;20.57;;
19929;SDS011;10127;47.780;9.606;2022-12-18T05:55:44;43.47;;;19.10;;
19929;SDS011;10127;47.780;9.606;2022-12-18T05:58:10;45.53;;;20.23;;
19929;SDS011;10127;47.780;9.606;2022-12-18T06:00:38;42.13;;;19.07;;
19929;SDS011;10127;47.780;9.606;2022-12-18T06:03:05;41.57;;;18.13;;
19929;SDS011;10127;47.780;9.606;2022-12-18T06:05:35;42.53;;;18.57;;
19929;SDS011;10127;47.780;9.606;2022-12-18T06:08:05;41.37;;;18.97;;
19929;SDS011;10127;47.780;9.606;2022-12-18T06:10:31;41.93;;;18.53;;
19929;SDS011;10127;47.780;9.606;2022-12-18T06:12:57;43.47;;;19.40;;
19929;SDS011;10127;47.780;9.606;2022-12-18T06:15:22;39.63;;;17.90;;
19929;SDS011;10127;47.780;9.606;2022-12-18T06:17:49;37.30;;;17.13;;
19929;SDS011;10127;47.780;9.606;2022-12-18T06:20:15;41.23;;;18.07;;
19929;SDS011;10127;47.780;9.606;2022-12-18T06:22:40;38.93;;;18.43;;
19929;SDS011;10127;47.780;9.606;2022-12-18T06:25:06;40.93;;;18.13;;
19929;SDS011;10127;47.780;9.606;2022-12-18T06:27:32;46.83;;;19.23;;
19929;SDS011;10127;47.780;9.606;2022-12-18T06:29:58;40.40;;;18.00;;
19929;SDS011;10127;47.780;9.606;2022-12-18T06:32:24;40.93;;;17.23;;
19929;SDS011;10127;47.780;9.606;2022-12-18T06:34:50;42.70;;;17.60;;
19929;SDS011;10127;47.780;9.606;2022-12-18T06:37:16;42.27;;;18.67;;
19929;SDS011;10127;47.780;9.606;2022-12-18T06:39:41;38.43;;;17.47;;
19929;SDS011;10127;47.780;9.606;2022-12-18T06:42:07;38.00;;;17.73;;
19929;SDS011;10127;47.780;9.606;2022-12-18T06:44:33;41.90;;;17.17;;
19929;SDS011;10127;47.780;9.606;2022-12-18T06:46:58;40.07;;;18.73;;
19929;SDS011;10127;47.780;9.606;2022-12-18T06:49:24;35.37;;;16.87;;
19929;SDS011;10127;47.780;9.606;2022-12-18T06:51:50;38.00;;;17.80;;
19929;SDS011;10127;47.780;9.606;2022-12-18T06:54:15;38.47;;;17.53;;
19929;SDS011;10127;47.780;9.606;2022-12-18T06:56:41;37.63;;;17.23;;
19929;SDS011;10127;47.780;9.606;2022-12-18T06:59:06;35.97;;;16.77;;
19929;SDS011;10127;47.780;9.606;2022-12-18T07:01:32;40.70;;;17.50;;
19929;SDS011;10127;47.780;9.606;2022-12-18T07:03:57;37.97;;;17.50;;
19929;SDS011;10127;47.780;9.606;2022-12-18T07:06:24;42.60;;;17.90;;
19929;SDS011;10127;47.780;9.606;2022-12-18T07:08:51;39.70;;;17.30;;
19929;SDS011;10127;47.780;9.606;2022-12-18T07:11:18;39.83;;;17.40;;
19929;SDS011;10127;47.780;9.606;2022-12-18T07:13:45;41.90;;;17.13;;
19929;SDS011;10127;47.780;9.606;2022-12-18T07:16:12;46.93;;;18.67;;
19929;SDS011;10127;47.780;9.606;2022-12-18T07:18:41;44.33;;;18.73;;
19929;SDS011;10127;47.780;9.606;2022-12-18T07:21:09;47.57;;;19.73;;
19929;SDS011;10127;47.780;9.606;2022-12-18T07:23:38;44.33;;;19.50;;
19929;SDS011;10127;47.780;9.606;2022-12-18T07:26:05;52.70;;;20.83;;
19929;SDS011;10127;47.780;9.606;2022-12-18T07:28:32;45.40;;;19.50;;
19929;SDS011;10127;47.780;9.606;2022-12-18T07:31:02;46.70;;;19.70;;
19929;SDS011;10127;47.780;9.606;2022-12-18T07:33:39;43.50;;;19.20;;
19929;SDS011;10127;47.780;9.606;2022-12-18T07:36:06;46.83;;;19.17;;
19929;SDS011;10127;47.780;9.606;2022-12-18T07:38:33;48.83;;;19.67;;
19929;SDS011;10127;47.780;9.606;2022-12-18T07:41:06;43.83;;;18.43;;
19929;SDS011;10127;47.780;9.606;2022-12-18T07:43:33;47.70;;;19.50;;
19929;SDS011;10127;47.780;9.606;2022-12-18T07:46:00;43.87;;;18.40;;
19929;SDS011;10127;47.780;9.606;2022-12-18T07:48:25;46.47;;;19.50;;
19929;SDS011;10127;47.780;9.606;2022-12-18T07:50:52;50.80;;;19.77;;
19929;SDS011;10127;47.780;9.606;2022-12-18T07:53:18;49.17;;;20.47;;
19929;SDS011;10127;47.780;9.606;2022-12-18T07:55:43;43.90;;;20.10;;
19929;SDS011;10127;47.780;9.606;2022-12-18T07:58:10;45.47;;;19.10;;
19929;SDS011;10127;47.780;9.606;2022-12-18T08:00:35;48.30;;;18.23;;
19929;SDS011;10127;47.780;9.606;2022-12-18T08:03:01;46.07;;;19.87;;
19929;SDS011;10127;47.780;9.606;2022-12-18T08:05:26;51.80;;;19.67;;
19929;SDS011;10127;47.780;9.606;2022-12-18T08:07:52;46.53;;;19.87;;
19929;SDS011;10127;47.780;9.606;2022-12-18T08:10:18;44.97;;;20.30;;
19929;SDS011;10127;47.780;9.606;2022-12-18T08:12:44;46.97;;;20.20;;
19929;SDS011;10127;47.780;9.606;2022-12-18T08:15:10;49.93;;;20.37;;
19929;SDS011;10127;47.780;9.606;2022-12-18T08:17:36;55.93;;;22.67;;
19929;SDS011;10127;47.780;9.606;2022-12-18T08:20:01;52.93;;;20.63;;
19929;SDS011;10127;47.780;9.606;2022-12-18T08:22:27;55.13;;;21.93;;
19929;SDS011;10127;47.780;9.606;2022-12-18T08:24:53;48.90;;;20.87;;
19929;SDS011;10127;47.780;9.606;2022-12-18T08:27:18;55.93;;;22.53;;
19929;SDS011;10127;47.780;9.606;2022-12-18T08:29:45;55.37;;;22.63;;
19929;SDS011;10127;47.780;9.606;2022-12-18T08:32:10;56.90;;;21.17;;
19929;SDS011;10127;47.780;9.606;2022-12-18T08:34:36;52.93;;;20.27;;
19929;SDS011;10127;47.780;9.606;2022-12-18T08:37:01;54.73;;;21.70;;
19929;SDS011;10127;47.780;9.606;2022-12-18T08:39:27;51.30;;;21.93;;
19929;SDS011;10127;47.780;9.606;2022-12-18T08:41:53;60.60;;;23.33;;
19929;SDS011;10127;47.780;9.606;2022-12-18T08:44:57;56.80;;;21.80;;
19929;SDS011;10127;47.780;9.606;2022-12-18T08:47:23;56.67;;;21.43;;
19929;SDS011;10127;47.780;9.606;2022-12-18T08:49:48;53.10;;;20.63;;
19929;SDS011;10127;47.780;9.606;2022-12-18T08:52:14;51.87;;;20.60;;
19929;SDS011;10127;47.780;9.606;2022-12-18T08:54:40;49.87;;;21.23;;
19929;SDS011;10127;47.780;9.606;2022-12-18T08:57:05;56.60;;;22.07;;
19929;SDS011;10127;47.780;9.606;2022-12-18T08:59:31;52.90;;;21.83;;
19929;SDS011;10127;47.780;9.606;2022-12-18T09:01:57;58.80;;;21.60;;
19929;SDS011;10127;47.780;9.606;2022-12-18T09:04:22;46.97;;;20.27;;
19929;SDS011;10127;47.780;9.606;2022-12-18T09:06:48;47.57;;;19.90;;
19929;SDS011;10127;47.780;9.606;2022-12-18T09:09:14;47.57;;;19.37;;
19929;SDS011;10127;47.780;9.606;2022-12-18T09:11:39;54.13;;;20.43;;
19929;SDS011;10127;47.780;9.606;2022-12-18T09:14:05;52.23;;;20.17;;
19929;SDS011;10127;47.780;9.606;2022-12-18T09:16:31;46.50;;;19.33;;
19929;SDS011;10127;47.780;9.606;2022-12-18T09:18:57;49.80;;;19.83;;
19929;SDS011;10127;47.780;9.606;2022-12-18T09:21:28;47.83;;;19.70;;
19929;SDS011;10127;47.780;9.606;2022-12-18T09:23:55;48.03;;;18.97;;
19929;SDS011;10127;47.780;9.606;2022-12-18T09:26:21;51.53;;;19.93;;
19929;SDS011;10127;47.780;9.606;2022-12-18T09:28:48;43.10;;;19.50;;
19929;SDS011;10127;47.780;9.606;2022-12-18T09:31:15;46.53;;;19.37;;
19929;SDS011;10127;47.780;9.606;2022-12-18T09:33:42;48.63;;;18.90;;
19929;SDS011;10127;47.780;9.606;2022-12-18T09:36:10;50.40;;;18.83;;
19929;SDS011;10127;47.780;9.606;2022-12-18T09:38:37;52.63;;;19.93;;
19929;SDS011;10127;47.780;9.606;2022-12-18T09:44:05;55.93;;;20.73;;
19929;SDS011;10127;47.780;9.606;2022-12-18T09:46:43;54.17;;;20.10;;
19929;SDS011;10127;47.780;9.606;2022-12-18T09:49:13;50.23;;;19.67;;
19929;SDS011;10127;47.780;9.606;2022-12-18T09:51:44;49.33;;;20.37;;
19929;SDS011;10127;47.780;9.606;2022-12-18T09:54:22;52.50;;;20.07;;
19929;SDS011;10127;47.780;9.606;2022-12-18T09:57:05;48.77;;;20.10;;
19929;SDS011;10127;47.780;9.606;2022-12-18T09:59:36;48.97;;;21.03;;
19929;SDS011;10127;47.780;9.606;2022-12-18T10:02:14;54.20;;;20.60;;
19929;SDS011;10127;47.780;9.606;2022-12-18T10:04:57;51.57;;;20.53;;
19929;SDS011;10127;47.780;9.606;2022-12-18T10:07:32;47.73;;;19.57;;
19929;SDS011;10127;47.780;9.606;2022-12-18T10:12:56;50.80;;;20.70;;
19929;SDS011;10127;47.780;9.606;2022-12-18T10:21:21;53.97;;;22.27;;
19929;SDS011;10127;47.780;9.606;2022-12-18T10:26:37;47.60;;;19.83;;
19929;SDS011;10127;47.780;9.606;2022-12-18T10:29:07;56.90;;;21.47;;
19929;SDS011;10127;47.780;9.606;2022-12-18T10:31:37;53.60;;;20.57;;
19929;SDS011;10127;47.780;9.606;2022-12-18T10:34:02;59.67;;;21.57;;
19929;SDS011;10127;47.780;9.606;2022-12-18T10:36:28;54.57;;;22.23;;
19929;SDS011;10127;47.780;9.606;2022-12-18T10:38:56;55.20;;;21.70;;
19929;SDS011;10127;47.780;9.606;2022-12-18T10:41:40;55.83;;;22.50;;
19929;SDS011;10127;47.780;9.606;2022-12-18T10:44:14;57.23;;;22.47;;
19929;SDS011;10127;47.780;9.606;2022-12-18T10:46:46;55.93;;;21.67;;
19929;SDS011;10127;47.780;9.606;2022-12-18T10:49:25;57.00;;;22.13;;
19929;SDS011;10127;47.780;9.606;2022-12-18T10:54:49;59.73;;;22.70;;
19929;SDS011;10127;47.780;9.606;2022-12-18T10:57:35;54.37;;;22.00;;
19929;SDS011;10127;47.780;9.606;2022-12-18T11:00:25;61.17;;;22.87;;
19929;SDS011;10127;47.780;9.606;2022-12-18T11:02:53;59.80;;;23.30;;
19929;SDS011;10127;47.780;9.606;2022-12-18T11:07:55;50.00;;;20.73;;
19929;SDS011;10127;47.780;9.606;2022-12-18T11:10:25;53.63;;;22.00;;
19929;SDS011;10127;47.780;9.606;2022-12-18T11:12:54;48.60;;;20.90;;
19929;SDS011;10127;47.780;9.606;2022-12-18T11:15:21;51.83;;;21.03;;
19929;SDS011;10127;47.780;9.606;2022-12-18T11:17:51;47.30;;;20.40;;
19929;SDS011;10127;47.780;9.606;2022-12-18T11:20:26;51.40;;;20.87;;
19929;SDS011;10127;47.780;9.606;2022-12-18T11:23:04;47.07;;;20.37;;
19929;SDS011;10127;47.780;9.606;2022-12-18T11:25:31;49.10;;;22.00;;
19929;SDS011;10127;47.780;9.606;2022-12-18T11:28:02;51.50;;;22.33;;
19929;SDS011;10127;47.780;9.606;2022-12-18T11:30:36;54.70;;;22.37;;
19929;SDS011;10127;47.780;9.606;2022-12-18T11:33:08;48.67;;;21.47;;
19929;SDS011;10127;47.780;9.606;2022-12-18T11:38:26;48.80;;;21.43;;
19929;SDS011;10127;47.780;9.606;2022-12-18T11:46:50;49.40;;;21.33;;
19929;SDS011;10127;47.780;9.606;2022-12-18T11:49:25;53.93;;;22.47;;
19929;SDS011;10127;47.780;9.606;2022-12-18T11:55:12;53.70;;;21.53;;
19929;SDS011;10127;47.780;9.606;2022-12-18T11:57:53;50.20;;;22.23;;
19929;SDS011;10127;47.780;9.606;2022-12-18T12:00:26;52.07;;;22.43;;
19929;SDS011;10127;47.780;9.606;2022-12-18T12:05:48;53.60;;;21.07;;
19929;SDS011;10127;47.780;9.606;2022-12-18T12:08:47;50.10;;;21.17;;
19929;SDS011;10127;47.780;9.606;2022-12-18T12:13:54;46.20;;;20.90;;
19929;SDS011;10127;47.780;9.606;2022-12-18T12:16:41;50.37;;;22.00;;
19929;SDS011;10127;47.780;9.606;2022-12-18T12:22:22;51.53;;;21.30;;
19929;SDS011;10127;47.780;9.606;2022-12-18T12:35:35;48.43;;;21.63;;
19929;SDS011;10127;47.780;9.606;2022-12-18T12:38:24;50.53;;;22.27;;
19929;SDS011;10127;47.780;9.606;2022-12-18T12:43:37;54.67;;;22.80;;
19929;SDS011;10127;47.780;9.606;2022-12-18T12:46:11;56.43;;;23.30;;
19929;SDS011;10127;47.780;9.606;2022-12-18T12:51:20;59.03;;;22.63;;
19929;SDS011;10127;47.780;9.606;2022-12-18T12:53:51;54.60;;;24.00;;
19929;SDS011;10127;47.780;9.606;2022-12-18T12:56:19;54.07;;;23.23;;
19929;SDS011;10127;47.780;9.606;2022-12-18T13:09:33;46.30;;;20.93;;
19929;SDS011;10127;47.780;9.606;2022-12-18T13:12:03;50.70;;;21.90;;
19929;SDS011;10127;47.780;9.606;2022-12-18T13:14:53;55.97;;;22.53;;
19929;SDS011;10127;47.780;9.606;2022-12-18T13:19:45;60.60;;;25.40;;
19929;SDS011;10127;47.780;9.606;2022-12-18T13:25:28;55.87;;;21.67;;
19929;SDS011;10127;47.780;9.606;2022-12-18T13:28:04;49.53;;;23.30;;
19929;SDS011;10127;47.780;9.606;2022-12-18T13:30:45;49.57;;;21.60;;
19929;SDS011;10127;47.780;9.606;2022-12-18T13:38:25;45.60;;;21.53;;
19929;SDS011;10127;47.780;9.606;2022-12-18T13:43:33;50.47;;;21.13;;
19929;SDS011;10127;47.780;9.606;2022-12-18T13:46:04;44.87;;;20.57;;
19929;SDS011;10127;47.780;9.606;2022-12-18T13:48:48;46.60;;;20.87;;
19929;SDS011;10127;47.780;9.606;2022-12-18T13:51:17;47.37;;;20.97;;
19929;SDS011;10127;47.780;9.606;2022-12-18T13:53:45;47.73;;;19.87;;
19929;SDS011;10127;47.780;9.606;2022-12-18T13:56:17;49.80;;;20.33;;
19929;SDS011;10127;47.780;9.606;2022-12-18T13:58:46;51.80;;;21.70;;
19929;SDS011;10127;47.780;9.606;2022-12-18T14:01:31;47.83;;;20.57;;
19929;SDS011;10127;47.780;9.606;2022-12-18T14:04:10;50.67;;;21.13;;
19929;SDS011;10127;47.780;9.606;2022-12-18T14:06:37;47.70;;;22.03;;
19929;SDS011;10127;47.780;9.606;2022-12-18T14:09:03;47.63;;;19.70;;
19929;SDS011;10127;47.780;9.606;2022-12-18T14:11:29;48.10;;;20.23;;
19929;SDS011;10127;47.780;9.606;2022-12-18T14:13:55;47.30;;;21.17;;
19929;SDS011;10127;47.780;9.606;2022-12-18T14:16:21;44.77;;;20.10;;
19929;SDS011;10127;47.780;9.606;2022-12-18T14:18:49;47.83;;;20.30;;
19929;SDS011;10127;47.780;9.606;2022-12-18T14:24:06;49.87;;;22.20;;
19929;SDS011;10127;47.780;9.606;2022-12-18T14:26:46;46.67;;;20.80;;
19929;SDS011;10127;47.780;9.606;2022-12-18T14:32:03;43.80;;;20.13;;
19929;SDS011;10127;47.780;9.606;2022-12-18T14:34:34;46.33;;;20.27;;
19929;SDS011;10127;47.780;9.606;2022-12-18T14:36:59;47.70;;;21.43;;
19929;SDS011;10127;47.780;9.606;2022-12-18T14:39:25;49.00;;;20.83;;
19929;SDS011;10127;47.780;9.606;2022-12-18T14:41:51;44.70;;;20.80;;
19929;SDS011;10127;47.780;9.606;2022-12-18T14:44:17;48.77;;;20.57;;
19929;SDS011;10127;47.780;9.606;2022-12-18T14:46:46;47.30;;;20.63;;
19929;SDS011;10127;47.780;9.606;2022-12-18T14:49:24;51.07;;;21.43;;
19929;SDS011;10127;47.780;9.606;2022-12-18T14:51:56;49.20;;;20.67;;
19929;SDS011;10127;47.780;9.606;2022-12-18T14:54:24;53.33;;;20.80;;
19929;SDS011;10127;47.780;9.606;2022-12-18T14:56:51;47.00;;;21.03;;
19929;SDS011;10127;47.780;9.606;2022-12-18T14:59:23;50.07;;;20.53;;
19929;SDS011;10127;47.780;9.606;2022-12-18T15:07:03;48.63;;;19.40;;
19929;SDS011;10127;47.780;9.606;2022-12-18T15:09:31;50.90;;;21.33;;
19929;SDS011;10127;47.780;9.606;2022-12-18T15:11:58;55.80;;;22.97;;
19929;SDS011;10127;47.780;9.606;2022-12-18T15:14:30;49.70;;;21.40;;
19929;SDS011;10127;47.780;9.606;2022-12-18T15:16:59;44.47;;;21.03;;
19929;SDS011;10127;47.780;9.606;2022-12-18T15:19:37;49.20;;;21.97;;
19929;SDS011;10127;47.780;9.606;2022-12-18T15:22:12;48.73;;;20.17;;
19929;SDS011;10127;47.780;9.606;2022-12-18T15:24:48;48.83;;;20.27;;
19929;SDS011;10127;47.780;9.606;2022-12-18T15:27:33;46.97;;;20.97;;
19929;SDS011;10127;47.780;9.606;2022-12-18T15:32:35;52.03;;;22.37;;
19929;SDS011;10127;47.780;9.606;2022-12-18T15:35:03;50.83;;;22.03;;
19929;SDS011;10127;47.780;9.606;2022-12-18T15:37:34;49.63;;;21.97;;
19929;SDS011;10127;47.780;9.606;2022-12-18T15:40:00;55.57;;;23.27;;
19929;SDS011;10127;47.780;9.606;2022-12-18T15:42:27;58.83;;;22.30;;
19929;SDS011;10127;47.780;9.606;2022-12-18T15:45:12;53.00;;;21.83;;
19929;SDS011;10127;47.780;9.606;2022-12-18T15:47:39;53.83;;;22.63;;
19929;SDS011;10127;47.780;9.606;2022-12-18T15:50:06;53.57;;;22.27;;
19929;SDS011;10127;47.780;9.606;2022-12-18T15:52:34;49.40;;;20.83;;
19929;SDS011;10127;47.780;9.606;2022-12-18T15:55:12;49.37;;;22.33;;
19929;SDS011;10127;47.780;9.606;2022-12-18T15:57:58;50.03;;;21.60;;
19929;SDS011;10127;47.780;9.606;2022-12-18T16:00:23;52.57;;;23.20;;
19929;SDS011;10127;47.780;9.606;2022-12-18T16:02:49;48.97;;;21.33;;
19929;SDS011;10127;47.780;9.606;2022-12-18T16:05:15;55.27;;;22.63;;
19929;SDS011;10127;47.780;9.606;2022-12-18T16:07:42;49.37;;;22.10;;
19929;SDS011;10127;47.780;9.606;2022-12-18T16:10:08;54.33;;;22.80;;
19929;SDS011;10127;47.780;9.606;2022-12-18T16:12:34;52.47;;;22.90;;
19929;SDS011;10127;47.780;9.606;2022-12-18T16:15:00;56.77;;;22.87;;
19929;SDS011;10127;47.780;9.606;2022-12-18T16:17:26;53.37;;;22.47;;
19929;SDS011;10127;47.780;9.606;2022-12-18T16:19:52;52.60;;;21.50;;
19929;SDS011;10127;47.780;9.606;2022-12-18T16:22:25;49.70;;;21.57;;
19929;SDS011;10127;47.780;9.606;2022-12-18T16:24:53;56.30;;;23.43;;
19929;SDS011;10127;47.780;9.606;2022-12-18T16:27:20;54.73;;;23.53;;
19929;SDS011;10127;47.780;9.606;2022-12-18T16:29:46;52.77;;;22.27;;
19929;SDS011;10127;47.780;9.606;2022-12-18T16:32:19;53.80;;;22.23;;
19929;SDS011;10127;47.780;9.606;2022-12-18T16:34:46;50.97;;;24.17;;
19929;SDS011;10127;47.780;9.606;2022-12-18T16:37:13;54.87;;;23.40;;
19929;SDS011;10127;47.780;9.606;2022-12-18T16:39:39;51.00;;;22.37;;
19929;SDS011;10127;47.780;9.606;2022-12-18T16:42:08;55.13;;;22.60;;
19929;SDS011;10127;47.780;9.606;2022-12-18T16:44:41;56.33;;;22.50;;
19929;SDS011;10127;47.780;9.606;2022-12-18T16:47:07;56.53;;;22.70;;
19929;SDS011;10127;47.780;9.606;2022-12-18T16:49:33;53.40;;;22.20;;
19929;SDS011;10127;47.780;9.606;2022-12-18T16:51:58;52.07;;;22.13;;
19929;SDS011;10127;47.780;9.606;2022-12-18T16:54:24;51.30;;;21.93;;